Fostoria, Iowa
Current Conditions -  °F | °C
As of 3:53 AM on Friday 24 Oct 2014 (Local Time) from KSPW Reporting Station
Clear Clear  
Wind Chill: 45°   Ceiling: Unl
Heat Index: 49°   Visibility: 10mi
Dew Point: 45°   Wind: 8mph
Humidity: 86%   Direction: 160°SSE
Pressure: 29.92"   Gusts: NA
Location:  43.24°N, 95.16°W
Report Text: KSPW 240853Z AUTO 16007KT 10SM CLR 09/07 A2992 RMK AO2 SLP131 T00940072 58017 TSNO
Loading
Personal Weather Stations






























Interactive Weather Map
Tropical Storm Tracking
New forecast layout! Learn more

10-Day Weather Forecast

Advertisements
Track Severe Weather on mobile